sensor_id;sensor_type;location;lat;lon;timestamp;pressure;altitude;pressure_sealevel;temperature;humidity
2875;BME280;1445;52.600;13.328;2023-02-03T00:00:37;101475.75;;;2.72;100.00
2875;BME280;1445;52.600;13.328;2023-02-03T00:03:02;101475.00;;;2.65;100.00
2875;BME280;1445;52.600;13.328;2023-02-03T00:05:28;101472.53;;;2.63;100.00
2875;BME280;1445;52.600;13.328;2023-02-03T00:07:54;101468.75;;;2.65;100.00
2875;BME280;1445;52.600;13.328;2023-02-03T00:10:20;101461.16;;;2.67;100.00
2875;BME280;1445;52.600;13.328;2023-02-03T00:12:50;101460.22;;;2.61;100.00
2875;BME280;1445;52.600;13.328;2023-02-03T00:15:17;101455.94;;;2.53;100.00
2875;BME280;1445;52.600;13.328;2023-02-03T00:17:43;101448.75;;;2.41;100.00
2875;BME280;1445;52.600;13.328;2023-02-03T00:20:09;101449.47;;;2.36;100.00
2875;BME280;1445;52.600;13.328;2023-02-03T00:22:35;101439.38;;;2.25;100.00
2875;BME280;1445;52.600;13.328;2023-02-03T00:25:00;101447.66;;;2.30;100.00
2875;BME280;1445;52.600;13.328;2023-02-03T00:27:26;101441.72;;;2.21;100.00
2875;BME280;1445;52.600;13.328;2023-02-03T00:29:51;101437.16;;;2.15;100.00
2875;BME280;1445;52.600;13.328;2023-02-03T00:32:17;101438.06;;;2.09;100.00
2875;BME280;1445;52.600;13.328;2023-02-03T00:34:42;101432.31;;;2.17;100.00
2875;BME280;1445;52.600;13.328;2023-02-03T00:37:07;101427.03;;;2.22;100.00
2875;BME280;1445;52.600;13.328;2023-02-03T00:39:35;101419.81;;;2.28;100.00
2875;BME280;1445;52.600;13.328;2023-02-03T00:42:02;101408.91;;;2.16;100.00
2875;BME280;1445;52.600;13.328;2023-02-03T00:44:28;101406.19;;;2.16;100.00
2875;BME280;1445;52.600;13.328;2023-02-03T00:46:53;101410.56;;;2.17;100.00
2875;BME280;1445;52.600;13.328;2023-02-03T00:49:19;101415.16;;;2.17;100.00
2875;BME280;1445;52.600;13.328;2023-02-03T00:51:44;101424.03;;;2.12;100.00
2875;BME280;1445;52.600;13.328;2023-02-03T00:54:13;101418.81;;;2.10;100.00
2875;BME280;1445;52.600;13.328;2023-02-03T00:56:39;101425.69;;;2.13;100.00
2875;BME280;1445;52.600;13.328;2023-02-03T00:59:04;101424.78;;;2.19;100.00
2875;BME280;1445;52.600;13.328;2023-02-03T01:01:31;101420.69;;;2.28;100.00
2875;BME280;1445;52.600;13.328;2023-02-03T01:03:57;101420.91;;;2.27;100.00
2875;BME280;1445;52.600;13.328;2023-02-03T01:06:23;101405.66;;;2.26;100.00
2875;BME280;1445;52.600;13.328;2023-02-03T01:08:49;101404.38;;;2.28;100.00
2875;BME280;1445;52.600;13.328;2023-02-03T01:11:23;101411.66;;;2.28;100.00
2875;BME280;1445;52.600;13.328;2023-02-03T01:13:54;101401.28;;;2.25;100.00
2875;BME280;1445;52.600;13.328;2023-02-03T01:16:22;101410.75;;;2.34;100.00
2875;BME280;1445;52.600;13.328;2023-02-03T01:18:48;101405.78;;;2.31;100.00
2875;BME280;1445;52.600;13.328;2023-02-03T01:21:20;101390.75;;;2.28;100.00
2875;BME280;1445;52.600;13.328;2023-02-03T01:23:46;101394.53;;;2.27;100.00
2875;BME280;1445;52.600;13.328;2023-02-03T01:26:13;101398.69;;;2.30;100.00
2875;BME280;1445;52.600;13.328;2023-02-03T01:28:39;101388.63;;;2.30;100.00
2875;BME280;1445;52.600;13.328;2023-02-03T01:31:14;101375.47;;;2.27;100.00
2875;BME280;1445;52.600;13.328;2023-02-03T01:33:40;101362.56;;;2.23;100.00
2875;BME280;1445;52.600;13.328;2023-02-03T01:36:08;101369.31;;;2.20;100.00
2875;BME280;1445;52.600;13.328;2023-02-03T01:38:36;101364.78;;;2.14;100.00
2875;BME280;1445;52.600;13.328;2023-02-03T01:41:02;101359.72;;;2.18;100.00
2875;BME280;1445;52.600;13.328;2023-02-03T01:45:56;101342.91;;;2.09;100.00
2875;BME280;1445;52.600;13.328;2023-02-03T01:48:22;101334.47;;;1.99;100.00
2875;BME280;1445;52.600;13.328;2023-02-03T01:50:48;101328.88;;;1.94;100.00
2875;BME280;1445;52.600;13.328;2023-02-03T01:53:14;101315.28;;;1.94;100.00
2875;BME280;1445;52.600;13.328;2023-02-03T01:55:42;101321.09;;;1.97;100.00
2875;BME280;1445;52.600;13.328;2023-02-03T01:58:16;101320.84;;;1.99;100.00
2875;BME280;1445;52.600;13.328;2023-02-03T02:00:45;101316.94;;;1.95;100.00
2875;BME280;1445;52.600;13.328;2023-02-03T02:03:12;101315.41;;;1.99;100.00
2875;BME280;1445;52.600;13.328;2023-02-03T02:05:39;101298.75;;;1.95;100.00
2875;BME280;1445;52.600;13.328;2023-02-03T02:08:08;101296.47;;;1.92;100.00
2875;BME280;1445;52.600;13.328;2023-02-03T02:10:34;101283.25;;;1.96;100.00
2875;BME280;1445;52.600;13.328;2023-02-03T02:13:01;101274.16;;;1.90;100.00
2875;BME280;1445;52.600;13.328;2023-02-03T02:23:46;101235.47;;;1.88;100.00
2875;BME280;1445;52.600;13.328;2023-02-03T02:26:25;101233.91;;;1.80;100.00
2875;BME280;1445;52.600;13.328;2023-02-03T02:29:00;101209.56;;;1.85;100.00
2875;BME280;1445;52.600;13.328;2023-02-03T02:32:09;101207.56;;;1.81;100.00
2875;BME280;1445;52.600;13.328;2023-02-03T02:40:01;101176.94;;;1.74;100.00
2875;BME280;1445;52.600;13.328;2023-02-03T02:45:36;101162.78;;;1.83;100.00
2875;BME280;1445;52.600;13.328;2023-02-03T02:48:14;101156.63;;;1.88;100.00
2875;BME280;1445;52.600;13.328;2023-02-03T02:50:45;101148.22;;;1.78;100.00
2875;BME280;1445;52.600;13.328;2023-02-03T02:53:13;101152.94;;;1.71;100.00
2875;BME280;1445;52.600;13.328;2023-02-03T02:55:41;101143.41;;;1.80;100.00
2875;BME280;1445;52.600;13.328;2023-02-03T02:58:10;101135.59;;;1.83;100.00
2875;BME280;1445;52.600;13.328;2023-02-03T03:00:39;101127.31;;;1.78;100.00
2875;BME280;1445;52.600;13.328;2023-02-03T03:05:38;101112.19;;;1.82;100.00
2875;BME280;1445;52.600;13.328;2023-02-03T03:08:07;101110.66;;;1.86;100.00
2875;BME280;1445;52.600;13.328;2023-02-03T03:10:36;101116.81;;;1.94;100.00
2875;BME280;1445;52.600;13.328;2023-02-03T03:13:07;101105.69;;;2.07;100.00
2875;BME280;1445;52.600;13.328;2023-02-03T03:15:35;101113.63;;;1.97;100.00
2875;BME280;1445;52.600;13.328;2023-02-03T03:18:13;101089.84;;;1.92;100.00
2875;BME280;1445;52.600;13.328;2023-02-03T03:20:41;101061.50;;;2.11;100.00
2875;BME280;1445;52.600;13.328;2023-02-03T03:23:19;101063.25;;;2.06;100.00
2875;BME280;1445;52.600;13.328;2023-02-03T03:25:52;101060.53;;;2.06;100.00
2875;BME280;1445;52.600;13.328;2023-02-03T03:28:28;101057.25;;;2.04;100.00
2875;BME280;1445;52.600;13.328;2023-02-03T03:30:54;101054.97;;;2.12;100.00
2875;BME280;1445;52.600;13.328;2023-02-03T03:33:21;101045.41;;;2.10;100.00
2875;BME280;1445;52.600;13.328;2023-02-03T03:36:03;101044.72;;;2.14;100.00
2875;BME280;1445;52.600;13.328;2023-02-03T03:38:45;101037.59;;;2.13;100.00
2875;BME280;1445;52.600;13.328;2023-02-03T03:41:32;101037.72;;;2.19;100.00
2875;BME280;1445;52.600;13.328;2023-02-03T03:44:01;101039.84;;;2.17;100.00
2875;BME280;1445;52.600;13.328;2023-02-03T03:46:32;101019.97;;;2.16;100.00
2875;BME280;1445;52.600;13.328;2023-02-03T03:49:04;101027.88;;;2.18;100.00
2875;BME280;1445;52.600;13.328;2023-02-03T03:51:46;101044.94;;;2.25;100.00
2875;BME280;1445;52.600;13.328;2023-02-03T03:54:16;101049.75;;;2.34;100.00
2875;BME280;1445;52.600;13.328;2023-02-03T03:56:56;101026.94;;;2.24;100.00
2875;BME280;1445;52.600;13.328;2023-02-03T03:59:24;101032.94;;;2.37;100.00
2875;BME280;1445;52.600;13.328;2023-02-03T04:01:53;101033.31;;;2.29;100.00
2875;BME280;1445;52.600;13.328;2023-02-03T04:04:20;101040.03;;;2.38;100.00
2875;BME280;1445;52.600;13.328;2023-02-03T04:06:47;101006.97;;;2.58;100.00
2875;BME280;1445;52.600;13.328;2023-02-03T04:09:12;101017.00;;;2.70;100.00
2875;BME280;1445;52.600;13.328;2023-02-03T04:11:38;101000.91;;;2.68;100.00
2875;BME280;1445;52.600;13.328;2023-02-03T04:14:22;100989.41;;;2.78;100.00
2875;BME280;1445;52.600;13.328;2023-02-03T04:16:47;100967.63;;;2.78;100.00
2875;BME280;1445;52.600;13.328;2023-02-03T04:19:13;100973.41;;;2.81;100.00
2875;BME280;1445;52.600;13.328;2023-02-03T04:21:38;100949.22;;;2.85;100.00
2875;BME280;1445;52.600;13.328;2023-02-03T04:24:04;100962.59;;;2.86;100.00
2875;BME280;1445;52.600;13.328;2023-02-03T04:26:29;100951.13;;;2.84;100.00
2875;BME280;1445;52.600;13.328;2023-02-03T04:28:55;100950.47;;;2.94;100.00
2875;BME280;1445;52.600;13.328;2023-02-03T04:31:20;100947.09;;;3.04;100.00
2875;BME280;1445;52.600;13.328;2023-02-03T04:33:46;100946.03;;;3.05;100.00
2875;BME280;1445;52.600;13.328;2023-02-03T04:36:11;100930.84;;;3.09;100.00
2875;BME280;1445;52.600;13.328;2023-02-03T04:38:36;100919.78;;;3.16;100.00
2875;BME280;1445;52.600;13.328;2023-02-03T04:41:02;100920.19;;;3.24;100.00
2875;BME280;1445;52.600;13.328;2023-02-03T04:43:27;100909.53;;;3.23;100.00
2875;BME280;1445;52.600;13.328;2023-02-03T04:45:53;100918.13;;;3.31;100.00
2875;BME280;1445;52.600;13.328;2023-02-03T04:48:18;100901.28;;;3.34;100.00
2875;BME280;1445;52.600;13.328;2023-02-03T04:50:44;100904.91;;;3.40;100.00
2875;BME280;1445;52.600;13.328;2023-02-03T04:53:09;100884.91;;;3.51;100.00
2875;BME280;1445;52.600;13.328;2023-02-03T04:55:34;100888.00;;;3.60;100.00
2875;BME280;1445;52.600;13.328;2023-02-03T04:58:00;100882.97;;;3.69;100.00
2875;BME280;1445;52.600;13.328;2023-02-03T05:00:27;100887.97;;;3.77;100.00
2875;BME280;1445;52.600;13.328;2023-02-03T05:02:53;100880.44;;;3.84;100.00
2875;BME280;1445;52.600;13.328;2023-02-03T05:05:19;100883.28;;;3.94;100.00
2875;BME280;1445;52.600;13.328;2023-02-03T05:07:44;100865.06;;;4.00;100.00
2875;BME280;1445;52.600;13.328;2023-02-03T05:10:10;100864.69;;;4.13;100.00
2875;BME280;1445;52.600;13.328;2023-02-03T05:12:35;100871.34;;;4.22;100.00
2875;BME280;1445;52.600;13.328;2023-02-03T05:15:01;100876.31;;;4.30;100.00
2875;BME280;1445;52.600;13.328;2023-02-03T05:17:27;100858.41;;;4.40;100.00
2875;BME280;1445;52.600;13.328;2023-02-03T05:19:52;100854.66;;;4.46;100.00
2875;BME280;1445;52.600;13.328;2023-02-03T05:22:18;100863.72;;;4.51;100.00
2875;BME280;1445;52.600;13.328;2023-02-03T05:24:43;100852.59;;;4.58;100.00
2875;BME280;1445;52.600;13.328;2023-02-03T05:27:08;100845.81;;;4.66;100.00
2875;BME280;1445;52.600;13.328;2023-02-03T05:29:34;100846.72;;;4.76;100.00
2875;BME280;1445;52.600;13.328;2023-02-03T05:31:59;100848.94;;;4.79;100.00
2875;BME280;1445;52.600;13.328;2023-02-03T05:34:25;100840.31;;;4.93;100.00
2875;BME280;1445;52.600;13.328;2023-02-03T05:36:50;100822.88;;;4.99;100.00
2875;BME280;1445;52.600;13.328;2023-02-03T05:39:16;100829.72;;;5.01;100.00
2875;BME280;1445;52.600;13.328;2023-02-03T05:41:41;100819.66;;;5.12;100.00
2875;BME280;1445;52.600;13.328;2023-02-03T05:44:25;100813.16;;;5.13;100.00
2875;BME280;1445;52.600;13.328;2023-02-03T05:46:52;100809.66;;;5.28;100.00
2875;BME280;1445;52.600;13.328;2023-02-03T05:49:19;100799.56;;;5.29;100.00
2875;BME280;1445;52.600;13.328;2023-02-03T05:51:46;100805.06;;;5.34;100.00
2875;BME280;1445;52.600;13.328;2023-02-03T05:54:11;100816.59;;;5.46;100.00
2875;BME280;1445;52.600;13.328;2023-02-03T05:56:37;100800.53;;;5.55;100.00
2875;BME280;1445;52.600;13.328;2023-02-03T05:59:03;100788.78;;;5.59;100.00
2875;BME280;1445;52.600;13.328;2023-02-03T06:01:29;100774.81;;;5.61;100.00
2875;BME280;1445;52.600;13.328;2023-02-03T06:03:55;100760.09;;;5.67;100.00
2875;BME280;1445;52.600;13.328;2023-02-03T06:06:20;100757.63;;;5.70;100.00
2875;BME280;1445;52.600;13.328;2023-02-03T06:08:46;100771.34;;;5.81;100.00
2875;BME280;1445;52.600;13.328;2023-02-03T06:11:11;100752.47;;;5.84;100.00
2875;BME280;1445;52.600;13.328;2023-02-03T06:13:37;100750.56;;;5.85;100.00
2875;BME280;1445;52.600;13.328;2023-02-03T06:16:03;100755.22;;;5.89;100.00
2875;BME280;1445;52.600;13.328;2023-02-03T06:18:28;100743.50;;;5.94;100.00
2875;BME280;1445;52.600;13.328;2023-02-03T06:20:54;100736.94;;;5.95;100.00
2875;BME280;1445;52.600;13.328;2023-02-03T06:23:20;100731.22;;;6.02;100.00
2875;BME280;1445;52.600;13.328;2023-02-03T06:25:49;100727.66;;;6.01;100.00
2875;BME280;1445;52.600;13.328;2023-02-03T06:28:16;100735.31;;;6.04;100.00
2875;BME280;1445;52.600;13.328;2023-02-03T06:30:41;100729.84;;;6.04;100.00
2875;BME280;1445;52.600;13.328;2023-02-03T06:33:07;100753.13;;;6.12;100.00
2875;BME280;1445;52.600;13.328;2023-02-03T06:35:33;100737.81;;;6.11;100.00
2875;BME280;1445;52.600;13.328;2023-02-03T06:37:58;100741.34;;;6.16;100.00
2875;BME280;1445;52.600;13.328;2023-02-03T06:40:23;100739.16;;;6.18;100.00
2875;BME280;1445;52.600;13.328;2023-02-03T06:42:49;100718.91;;;6.14;100.00
2875;BME280;1445;52.600;13.328;2023-02-03T06:45:16;100726.56;;;6.22;100.00
2875;BME280;1445;52.600;13.328;2023-02-03T06:48:01;100702.47;;;6.19;100.00
2875;BME280;1445;52.600;13.328;2023-02-03T06:50:27;100724.38;;;6.25;100.00
2875;BME280;1445;52.600;13.328;2023-02-03T06:52:52;100700.84;;;6.44;100.00
2875;BME280;1445;52.600;13.328;2023-02-03T06:55:18;100723.28;;;6.51;100.00
2875;BME280;1445;52.600;13.328;2023-02-03T06:57:44;100700.56;;;6.61;100.00
2875;BME280;1445;52.600;13.328;2023-02-03T07:00:12;100696.97;;;6.55;100.00
2875;BME280;1445;52.600;13.328;2023-02-03T07:02:38;100695.59;;;6.53;100.00
2875;BME280;1445;52.600;13.328;2023-02-03T07:05:04;100676.16;;;6.49;100.00
2875;BME280;1445;52.600;13.328;2023-02-03T07:07:29;100680.00;;;6.48;100.00
2875;BME280;1445;52.600;13.328;2023-02-03T07:09:56;100693.72;;;6.53;100.00
2875;BME280;1445;52.600;13.328;2023-02-03T07:12:22;100671.53;;;6.55;100.00
2875;BME280;1445;52.600;13.328;2023-02-03T07:14:47;100678.09;;;6.59;100.00
2875;BME280;1445;52.600;13.328;2023-02-03T07:17:12;100660.84;;;6.58;100.00
2875;BME280;1445;52.600;13.328;2023-02-03T07:19:38;100660.84;;;6.63;100.00
2875;BME280;1445;52.600;13.328;2023-02-03T07:22:03;100666.00;;;6.70;100.00
2875;BME280;1445;52.600;13.328;2023-02-03T07:24:28;100650.66;;;6.69;100.00
2875;BME280;1445;52.600;13.328;2023-02-03T07:26:54;100640.25;;;6.71;100.00
2875;BME280;1445;52.600;13.328;2023-02-03T07:29:19;100624.91;;;6.75;100.00
2875;BME280;1445;52.600;13.328;2023-02-03T07:31:45;100627.66;;;6.75;100.00
2875;BME280;1445;52.600;13.328;2023-02-03T07:34:10;100619.94;;;6.77;100.00
2875;BME280;1445;52.600;13.328;2023-02-03T07:36:38;100643.53;;;6.78;100.00
2875;BME280;1445;52.600;13.328;2023-02-03T07:39:04;100603.25;;;6.79;100.00
2875;BME280;1445;52.600;13.328;2023-02-03T07:41:29;100603.25;;;6.74;100.00
2875;BME280;1445;52.600;13.328;2023-02-03T07:43:55;100607.38;;;6.81;100.00
2875;BME280;1445;52.600;13.328;2023-02-03T07:46:20;100598.84;;;6.83;100.00
2875;BME280;1445;52.600;13.328;2023-02-03T07:48:45;100590.38;;;6.79;100.00
2875;BME280;1445;52.600;13.328;2023-02-03T07:51:11;100609.53;;;6.79;100.00
2875;BME280;1445;52.600;13.328;2023-02-03T07:53:36;100606.25;;;6.82;100.00
2875;BME280;1445;52.600;13.328;2023-02-03T07:56:03;100592.81;;;6.81;100.00
2875;BME280;1445;52.600;13.328;2023-02-03T07:58:29;100595.03;;;6.79;100.00
2875;BME280;1445;52.600;13.328;2023-02-03T08:00:56;100590.06;;;6.81;100.00
2875;BME280;1445;52.600;13.328;2023-02-03T08:03:21;100593.91;;;6.85;100.00
2875;BME280;1445;52.600;13.328;2023-02-03T08:05:47;100575.00;;;6.83;100.00
2875;BME280;1445;52.600;13.328;2023-02-03T08:08:12;100578.03;;;6.82;100.00
2875;BME280;1445;52.600;13.328;2023-02-03T08:10:37;100575.25;;;6.87;100.00
2875;BME280;1445;52.600;13.328;2023-02-03T08:13:03;100552.78;;;6.90;100.00
2875;BME280;1445;52.600;13.328;2023-02-03T08:15:28;100543.44;;;6.91;100.00
2875;BME280;1445;52.600;13.328;2023-02-03T08:17:54;100590.88;;;6.86;100.00
2875;BME280;1445;52.600;13.328;2023-02-03T08:20:19;100556.09;;;6.87;100.00
2875;BME280;1445;52.600;13.328;2023-02-03T08:22:44;100543.50;;;6.86;100.00
2875;BME280;1445;52.600;13.328;2023-02-03T08:25:10;100534.72;;;6.84;100.00
2875;BME280;1445;52.600;13.328;2023-02-03T08:27:36;100538.81;;;6.86;100.00
2875;BME280;1445;52.600;13.328;2023-02-03T08:30:02;100556.09;;;6.87;100.00
2875;BME280;1445;52.600;13.328;2023-02-03T08:32:27;100521.81;;;6.89;100.00
2875;BME280;1445;52.600;13.328;2023-02-03T08:34:53;100521.81;;;6.89;100.00
2875;BME280;1445;52.600;13.328;2023-02-03T08:37:21;100531.41;;;6.92;100.00
2875;BME280;1445;52.600;13.328;2023-02-03T08:39:48;100527.00;;;6.91;100.00
2875;BME280;1445;52.600;13.328;2023-02-03T08:42:13;100553.34;;;6.92;100.00
2875;BME280;1445;52.600;13.328;2023-02-03T08:44:39;100527.25;;;6.94;100.00
2875;BME280;1445;52.600;13.328;2023-02-03T08:47:05;100499.88;;;6.94;100.00
2875;BME280;1445;52.600;13.328;2023-02-03T08:49:31;100506.72;;;6.97;100.00
2875;BME280;1445;52.600;13.328;2023-02-03T08:51:57;100502.84;;;6.98;100.00
2875;BME280;1445;52.600;13.328;2023-02-03T08:54:23;100475.44;;;6.98;100.00
2875;BME280;1445;52.600;13.328;2023-02-03T08:56:49;100476.56;;;6.97;100.00
2875;BME280;1445;52.600;13.328;2023-02-03T08:59:16;100483.41;;;7.00;100.00
2875;BME280;1445;52.600;13.328;2023-02-03T09:01:42;100493.56;;;6.99;100.00
2875;BME280;1445;52.600;13.328;2023-02-03T09:04:13;100469.72;;;7.00;100.00
2875;BME280;1445;52.600;13.328;2023-02-03T09:06:39;100478.44;;;7.02;100.00
2875;BME280;1445;52.600;13.328;2023-02-03T09:09:05;100474.31;;;7.04;100.00
2875;BME280;1445;52.600;13.328;2023-02-03T09:11:30;100477.59;;;7.06;100.00
2875;BME280;1445;52.600;13.328;2023-02-03T09:13:56;100455.69;;;7.06;100.00
2875;BME280;1445;52.600;13.328;2023-02-03T09:16:23;100462.78;;;7.07;100.00
2875;BME280;1445;52.600;13.328;2023-02-03T09:18:49;100490.44;;;7.16;100.00
2875;BME280;1445;52.600;13.328;2023-02-03T09:21:16;100453.38;;;7.18;100.00
2875;BME280;1445;52.600;13.328;2023-02-03T09:23:42;100468.16;;;7.23;100.00
2875;BME280;1445;52.600;13.328;2023-02-03T09:26:12;100446.22;;;7.23;100.00
2875;BME280;1445;52.600;13.328;2023-02-03T09:28:38;100443.78;;;7.21;100.00
2875;BME280;1445;52.600;13.328;2023-02-03T09:31:09;100447.56;;;7.25;100.00
2875;BME280;1445;52.600;13.328;2023-02-03T09:33:35;100452.25;;;7.25;100.00
2875;BME280;1445;52.600;13.328;2023-02-03T09:36:00;100448.94;;;7.28;100.00
2875;BME280;1445;52.600;13.328;2023-02-03T09:38:26;100433.59;;;7.27;100.00
2875;BME280;1445;52.600;13.328;2023-02-03T09:40:55;100452.16;;;7.35;100.00
2875;BME280;1445;52.600;13.328;2023-02-03T09:43:57;100422.50;;;7.37;100.00
2875;BME280;1445;52.600;13.328;2023-02-03T09:46:31;100443.63;;;7.36;100.00
2875;BME280;1445;52.600;13.328;2023-02-03T09:49:07;100429.66;;;7.38;100.00
2875;BME280;1445;52.600;13.328;2023-02-03T09:52:10;100405.50;;;7.40;100.00
2875;BME280;1445;52.600;13.328;2023-02-03T09:57:27;100395.84;;;7.48;100.00
2875;BME280;1445;52.600;13.328;2023-02-03T09:59:56;100381.00;;;7.49;100.00
2875;BME280;1445;52.600;13.328;2023-02-03T10:02:55;100402.03;;;7.58;100.00
2875;BME280;1445;52.600;13.328;2023-02-03T10:08:06;100385.59;;;7.58;100.00
2875;BME280;1445;52.600;13.328;2023-02-03T10:19:41;100344.94;;;7.60;100.00
2875;BME280;1445;52.600;13.328;2023-02-03T10:22:13;100376.94;;;7.70;100.00
2875;BME280;1445;52.600;13.328;2023-02-03T10:25:04;100356.03;;;7.74;100.00
2875;BME280;1445;52.600;13.328;2023-02-03T10:27:32;100392.59;;;7.70;100.00
2875;BME280;1445;52.600;13.328;2023-02-03T10:30:09;100403.34;;;7.66;100.00
2875;BME280;1445;52.600;13.328;2023-02-03T10:32:48;100398.41;;;7.63;100.00
2875;BME280;1445;52.600;13.328;2023-02-03T10:35:15;100419.88;;;7.56;100.00
2875;BME280;1445;52.600;13.328;2023-02-03T10:37:43;100440.56;;;7.43;100.00
2875;BME280;1445;52.600;13.328;2023-02-03T10:40:12;100469.00;;;7.23;100.00
2875;BME280;1445;52.600;13.328;2023-02-03T10:42:38;100457.81;;;6.70;100.00
2875;BME280;1445;52.600;13.328;2023-02-03T10:45:22;100469.19;;;6.43;100.00
2875;BME280;1445;52.600;13.328;2023-02-03T10:47:51;100444.53;;;6.48;100.00
2875;BME280;1445;52.600;13.328;2023-02-03T10:50:22;100422.91;;;6.41;100.00
2875;BME280;1445;52.600;13.328;2023-02-03T10:55:43;100425.34;;;6.48;100.00
2875;BME280;1445;52.600;13.328;2023-02-03T10:58:18;100410.84;;;6.48;100.00
2875;BME280;1445;52.600;13.328;2023-02-03T11:00:53;100417.19;;;6.38;100.00
2875;BME280;1445;52.600;13.328;2023-02-03T11:03:25;100440.22;;;6.32;100.00
2875;BME280;1445;52.600;13.328;2023-02-03T11:06:16;100422.72;;;6.28;100.00
2875;BME280;1445;52.600;13.328;2023-02-03T11:08:44;100422.72;;;6.28;100.00
2875;BME280;1445;52.600;13.328;2023-02-03T11:11:28;100415.00;;;6.40;100.00
2875;BME280;1445;52.600;13.328;2023-02-03T11:16:27;100381.03;;;6.46;100.00
2875;BME280;1445;52.600;13.328;2023-02-03T11:19:10;100396.59;;;6.45;100.00
2875;BME280;1445;52.600;13.328;2023-02-03T11:21:44;100375.69;;;6.65;100.00
2875;BME280;1445;52.600;13.328;2023-02-03T11:26:48;100363.47;;;6.86;100.00
2875;BME280;1445;52.600;13.328;2023-02-03T11:29:26;100355.75;;;7.23;100.00
2875;BME280;1445;52.600;13.328;2023-02-03T11:31:54;100351.09;;;7.52;100.00
2875;BME280;1445;52.600;13.328;2023-02-03T11:34:24;100350.84;;;7.73;100.00
2875;BME280;1445;52.600;13.328;2023-02-03T11:36:51;100333.59;;;7.72;100.00
2875;BME280;1445;52.600;13.328;2023-02-03T11:39:29;100333.41;;;7.63;100.00
2875;BME280;1445;52.600;13.328;2023-02-03T11:41:59;100319.38;;;7.65;100.00
2875;BME280;1445;52.600;13.328;2023-02-03T11:44:27;100319.59;;;7.69;100.00
2875;BME280;1445;52.600;13.328;2023-02-03T11:47:03;100311.63;;;7.72;100.00
2875;BME280;1445;52.600;13.328;2023-02-03T11:49:53;100335.38;;;7.82;100.00
2875;BME280;1445;52.600;13.328;2023-02-03T11:52:47;100301.59;;;8.05;100.00
2875;BME280;1445;52.600;13.328;2023-02-03T12:01:11;100281.59;;;8.75;100.00
2875;BME280;1445;52.600;13.328;2023-02-03T12:15:02;100301.00;;;8.65;100.00
2875;BME280;1445;52.600;13.328;2023-02-03T12:17:45;100289.63;;;8.53;100.00
2875;BME280;1445;52.600;13.328;2023-02-03T12:28:32;100295.59;;;8.60;100.00
2875;BME280;1445;52.600;13.328;2023-02-03T12:30:55;100292.22;;;8.82;100.00
2875;BME280;1445;52.600;13.328;2023-02-03T12:33:33;100282.88;;;8.97;100.00
2875;BME280;1445;52.600;13.328;2023-02-03T12:36:09;100290.53;;;9.00;100.00
2875;BME280;1445;52.600;13.328;2023-02-03T12:41:17;100280.03;;;9.02;100.00
2875;BME280;1445;52.600;13.328;2023-02-03T12:43:46;100284.22;;;8.99;100.00
2875;BME280;1445;52.600;13.328;2023-02-03T12:48:56;100393.06;;;7.77;100.00
2875;BME280;1445;52.600;13.328;2023-02-03T12:51:51;100417.81;;;7.13;100.00
2875;BME280;1445;52.600;13.328;2023-02-03T12:57:28;100467.34;;;4.39;100.00
2875;BME280;1445;52.600;13.328;2023-02-03T13:03:05;100439.50;;;4.42;100.00
2875;BME280;1445;52.600;13.328;2023-02-03T13:05:42;100474.66;;;4.39;100.00
2875;BME280;1445;52.600;13.328;2023-02-03T13:08:24;100484.28;;;4.51;100.00
2875;BME280;1445;52.600;13.328;2023-02-03T13:10:55;100493.00;;;4.48;100.00
2875;BME280;1445;52.600;13.328;2023-02-03T13:13:35;100504.53;;;4.61;100.00
2875;BME280;1445;52.600;13.328;2023-02-03T13:16:06;100510.31;;;4.74;100.00
2875;BME280;1445;52.600;13.328;2023-02-03T13:18:43;100512.22;;;4.84;100.00
2875;BME280;1445;52.600;13.328;2023-02-03T13:21:11;100537.38;;;4.86;100.00
2875;BME280;1445;52.600;13.328;2023-02-03T13:23:40;100549.38;;;4.90;100.00
2875;BME280;1445;52.600;13.328;2023-02-03T13:37:40;100488.78;;;5.09;100.00
2875;BME280;1445;52.600;13.328;2023-02-03T13:42:41;100503.31;;;5.55;100.00
2875;BME280;1445;52.600;13.328;2023-02-03T13:45:31;100485.75;;;5.82;100.00
2875;BME280;1445;52.600;13.328;2023-02-03T13:48:09;100475.09;;;6.01;100.00
2875;BME280;1445;52.600;13.328;2023-02-03T13:50:35;100463.50;;;6.24;100.00
2875;BME280;1445;52.600;13.328;2023-02-03T13:53:05;100455.22;;;6.50;100.00
2875;BME280;1445;52.600;13.328;2023-02-03T13:55:38;100431.78;;;6.78;100.00
2875;BME280;1445;52.600;13.328;2023-02-03T13:58:06;100427.84;;;6.89;100.00
2875;BME280;1445;52.600;13.328;2023-02-03T14:03:20;100421.13;;;7.05;100.00
2875;BME280;1445;52.600;13.328;2023-02-03T14:06:04;100405.09;;;7.23;100.00
2875;BME280;1445;52.600;13.328;2023-02-03T14:08:47;100402.84;;;7.30;100.00
2875;BME280;1445;52.600;13.328;2023-02-03T14:16:33;100374.47;;;7.69;100.00
2875;BME280;1445;52.600;13.328;2023-02-03T14:18:59;100386.09;;;7.84;100.00
2875;BME280;1445;52.600;13.328;2023-02-03T14:21:24;100407.72;;;7.91;100.00
2875;BME280;1445;52.600;13.328;2023-02-03T14:23:56;100401.34;;;7.96;100.00
2875;BME280;1445;52.600;13.328;2023-02-03T14:26:35;100398.66;;;7.91;100.00
2875;BME280;1445;52.600;13.328;2023-02-03T14:29:03;100404.03;;;7.77;100.00
2875;BME280;1445;52.600;13.328;2023-02-03T14:31:30;100404.28;;;7.80;100.00
2875;BME280;1445;52.600;13.328;2023-02-03T14:34:10;100415.25;;;8.04;100.00
2875;BME280;1445;52.600;13.328;2023-02-03T14:36:39;100419.75;;;7.95;100.00
2875;BME280;1445;52.600;13.328;2023-02-03T14:42:15;100413.94;;;7.97;100.00
2875;BME280;1445;52.600;13.328;2023-02-03T14:52:37;100410.38;;;7.48;100.00
2875;BME280;1445;52.600;13.328;2023-02-03T14:57:45;100446.91;;;7.38;100.00
2875;BME280;1445;52.600;13.328;2023-02-03T15:03:13;100432.44;;;7.33;100.00
2875;BME280;1445;52.600;13.328;2023-02-03T15:05:44;100438.25;;;7.26;100.00
2875;BME280;1445;52.600;13.328;2023-02-03T15:08:30;100430.25;;;7.30;100.00
2875;BME280;1445;52.600;13.328;2023-02-03T15:10:55;100440.16;;;7.31;100.00